createdAt,value
2019-04-27T00:01:10.458Z,101084.31
2019-04-27T00:03:41.169Z,101074.91
2019-04-27T00:06:08.705Z,101070.61
2019-04-27T00:08:44.368Z,101066.81
2019-04-27T00:11:14.208Z,101059.61
2019-04-27T00:13:43.992Z,101055.85
2019-04-27T00:16:13.912Z,101057.16
2019-04-27T00:18:45.511Z,101057.16
2019-04-27T00:21:32.791Z,101059.55
2019-04-27T00:24:01.114Z,101050.02
2019-04-27T00:26:29.322Z,101054.83
2019-04-27T00:28:57.530Z,101053.11
2019-04-27T00:31:25.736Z,101054.48
2019-04-27T00:33:53.961Z,101056.03
2019-04-27T00:36:32.957Z,101062.70
2019-04-27T00:39:07.445Z,101048.94
2019-04-27T00:41:35.661Z,101055.44
2019-04-27T00:44:03.933Z,101051.33
2019-04-27T00:46:33.063Z,101047.54
2019-04-27T00:49:01.333Z,101044.80
2019-04-27T00:51:29.564Z,101034.67
2019-04-27T00:53:57.769Z,101026.95
2019-04-27T00:56:42.972Z,101028.84
2019-04-27T00:59:27.296Z,101017.66
2019-04-27T01:02:14.952Z,101016.63
2019-04-27T01:04:43.322Z,101015.93
2019-04-27T01:07:11.612Z,101011.31
2019-04-27T01:09:39.991Z,101010.45
2019-04-27T01:12:08.573Z,101003.59
2019-04-27T01:14:36.786Z,100996.75
2019-04-27T01:17:04.985Z,100996.07
2019-04-27T01:19:33.202Z,101000.19
2019-04-27T01:22:01.473Z,100994.08
2019-04-27T01:24:30.479Z,100992.39
2019-04-27T01:27:00.325Z,100985.02
2019-04-27T01:29:32.837Z,100980.40
2019-04-27T01:32:01.227Z,100977.30
2019-04-27T01:34:29.610Z,100976.45
2019-04-27T01:36:59.405Z,100967.38
2019-04-27T01:39:28.912Z,100957.07
2019-04-27T01:41:58.942Z,100946.44
2019-04-27T01:44:27.389Z,100947.48
2019-04-27T01:46:55.621Z,100940.95
2019-04-27T01:49:23.828Z,100942.33
2019-04-27T01:51:52.030Z,100937.00
2019-04-27T01:54:21.895Z,100936.50
2019-04-27T01:56:50.101Z,100941.92
2019-04-27T01:59:19.873Z,100939.52
2019-04-27T02:01:55.349Z,100941.74
2019-04-27T02:04:36.967Z,100941.92
2019-04-27T02:07:09.171Z,100936.28
2019-04-27T02:09:38.676Z,100943.48
2019-04-27T02:12:06.956Z,100944.20
2019-04-27T02:14:35.164Z,100952.27
2019-04-27T02:17:03.384Z,100955.68
2019-04-27T02:19:31.595Z,100954.95
2019-04-27T02:21:59.880Z,100939.88
2019-04-27T02:24:28.800Z,100938.16
2019-04-27T02:26:58.740Z,100946.55
2019-04-27T02:29:31.374Z,100954.08
2019-04-27T02:32:03.925Z,100956.98
2019-04-27T02:34:33.758Z,100952.54
2019-04-27T02:37:02.688Z,100950.49
2019-04-27T02:39:31.147Z,100953.56
2019-04-27T02:42:00.223Z,100952.52
2019-04-27T02:44:30.325Z,100958.70
2019-04-27T02:47:00.407Z,100960.92
2019-04-27T02:49:30.356Z,100963.16
2019-04-27T02:52:00.006Z,100956.98
2019-04-27T02:54:29.845Z,100956.63
2019-04-27T02:56:59.390Z,100963.48
2019-04-27T02:59:30.323Z,100979.74
2019-04-27T03:02:02.007Z,100983.39
2019-04-27T03:04:30.456Z,100977.10
2019-04-27T03:07:00.286Z,100979.33
2019-04-27T03:09:30.428Z,100977.95
2019-04-27T03:11:59.879Z,100977.28
2019-04-27T03:14:36.593Z,100978.52
2019-04-27T03:17:06.578Z,100974.22
2019-04-27T03:19:36.420Z,100971.12
2019-04-27T03:22:14.823Z,100966.67
2019-04-27T03:24:53.643Z,100969.06
2019-04-27T03:27:23.503Z,100967.00
2019-04-27T03:29:51.717Z,100966.83
2019-04-27T03:32:22.701Z,100961.00
2019-04-27T03:34:52.453Z,100959.81
2019-04-27T03:37:20.358Z,100966.34
2019-04-27T03:39:49.868Z,100959.67
2019-04-27T03:42:20.614Z,100955.87
2019-04-27T03:44:50.243Z,100956.66
2019-04-27T03:47:19.798Z,100962.81
2019-04-27T03:49:50.652Z,100970.34
2019-04-27T03:52:29.977Z,100965.90
2019-04-27T03:55:05.713Z,100953.91
2019-04-27T03:57:51.503Z,100953.22
2019-04-27T04:00:31.281Z,100953.03
2019-04-27T04:03:00.593Z,100946.85
2019-04-27T04:05:30.099Z,100937.77
2019-04-27T04:08:00.424Z,100942.58
2019-04-27T04:10:29.970Z,100932.64
2019-04-27T04:13:10.716Z,100930.54
2019-04-27T04:16:00.129Z,100946.63
2019-04-27T04:18:29.368Z,100946.98
2019-04-27T04:21:00.342Z,100944.63
2019-04-27T04:23:29.731Z,100953.03
2019-04-27T04:25:59.731Z,100965.55
2019-04-27T04:28:29.560Z,100957.33
2019-04-27T04:30:57.517Z,100956.28
2019-04-27T04:33:25.737Z,100959.19
2019-04-27T04:35:53.951Z,100954.26
2019-04-27T04:38:22.170Z,100952.89
2019-04-27T04:40:52.031Z,100948.43
2019-04-27T04:43:36.318Z,100959.74
2019-04-27T04:46:23.173Z,100955.98
2019-04-27T04:48:51.493Z,100948.94
2019-04-27T04:51:20.151Z,100943.27
2019-04-27T04:53:48.824Z,100949.10
2019-04-27T04:56:18.872Z,100947.92
2019-04-27T04:58:47.124Z,100942.11
2019-04-27T05:01:15.339Z,100938.37
2019-04-27T05:03:43.569Z,100940.73
2019-04-27T05:06:11.780Z,100948.96
2019-04-27T05:08:40.003Z,100955.01
2019-04-27T05:11:09.601Z,100955.87
2019-04-27T05:13:39.351Z,100942.51
2019-04-27T05:16:08.939Z,100934.81
2019-04-27T05:18:37.193Z,100931.23
2019-04-27T05:21:12.784Z,100935.21
2019-04-27T05:23:40.987Z,100935.23
2019-04-27T05:26:09.313Z,100940.22
2019-04-27T05:28:38.395Z,100941.80
2019-04-27T05:31:09.018Z,100932.05
2019-04-27T05:33:38.867Z,100930.19
2019-04-27T05:36:07.064Z,100922.52
2019-04-27T05:38:35.271Z,100917.20
2019-04-27T05:41:03.494Z,100914.82
2019-04-27T05:43:33.419Z,100915.73
2019-04-27T05:46:29.736Z,100916.25
2019-04-27T05:48:59.904Z,100914.41
2019-04-27T05:51:36.736Z,100914.92
2019-04-27T05:53:58.866Z,100919.73
2019-04-27T05:56:28.860Z,100913.89
2019-04-27T05:58:57.065Z,100909.61
2019-04-27T06:01:25.288Z,100909.44
2019-04-27T06:03:53.758Z,100901.89
2019-04-27T06:06:22.270Z,100905.66
2019-04-27T06:08:50.716Z,100900.86
2019-04-27T06:11:19.720Z,100899.62
2019-04-27T06:13:49.250Z,100896.88
2019-04-27T06:16:19.346Z,100895.89
2019-04-27T06:18:49.329Z,100897.95
2019-04-27T06:21:19.444Z,100905.03
2019-04-27T06:23:48.786Z,100902.97
2019-04-27T06:26:17.272Z,100908.81
2019-04-27T06:28:45.479Z,100903.15
2019-04-27T06:31:13.713Z,100899.89
2019-04-27T06:33:41.918Z,100895.63
2019-04-27T06:36:10.200Z,100890.32
2019-04-27T06:38:39.362Z,100892.06
2019-04-27T06:41:09.776Z,100892.78
2019-04-27T06:43:37.563Z,100891.77
2019-04-27T06:46:06.145Z,100896.97
2019-04-27T06:48:34.406Z,100895.95
2019-04-27T06:51:05.544Z,100888.23
2019-04-27T06:53:32.626Z,100883.91
2019-04-27T06:56:01.080Z,100883.74
2019-04-27T06:58:29.376Z,100891.12
2019-04-27T07:00:59.372Z,100889.36
2019-04-27T07:03:28.958Z,100879.41
2019-04-27T07:05:58.826Z,100880.41
2019-04-27T07:08:28.633Z,100877.95
2019-04-27T07:10:58.753Z,100885.54
2019-04-27T07:13:28.983Z,100888.60
2019-04-27T07:15:57.123Z,100881.00
2019-04-27T07:18:25.345Z,100878.56
2019-04-27T07:20:53.569Z,100877.31
2019-04-27T07:23:22.058Z,100875.78
2019-04-27T07:25:50.547Z,100878.84
2019-04-27T07:28:19.117Z,100871.52
2019-04-27T07:30:48.783Z,100870.78
2019-04-27T07:33:18.490Z,100869.66
2019-04-27T07:35:46.803Z,100865.24
2019-04-27T07:38:15.078Z,100868.00
2019-04-27T07:40:43.478Z,100867.17
2019-04-27T07:43:31.195Z,100867.27
2019-04-27T07:45:59.673Z,100862.41
2019-04-27T07:48:28.542Z,100862.27
2019-04-27T07:50:56.773Z,100862.66
2019-04-27T07:53:24.973Z,100866.73
2019-04-27T07:55:53.183Z,100854.98
2019-04-27T07:58:22.240Z,100857.80
2019-04-27T08:00:51.092Z,100856.48
2019-04-27T08:03:19.627Z,100860.63
2019-04-27T08:05:49.119Z,100861.46
2019-04-27T08:08:18.999Z,100856.38
2019-04-27T08:10:48.438Z,100858.69
2019-04-27T08:13:17.272Z,100848.67
2019-04-27T08:15:45.766Z,100852.45
2019-04-27T08:18:14.241Z,100852.14
2019-04-27T08:20:42.724Z,100855.83
2019-04-27T08:23:11.200Z,100859.83
2019-04-27T08:25:39.702Z,100861.80
2019-04-27T08:28:10.437Z,100862.38
2019-04-27T08:30:40.346Z,100861.84
2019-04-27T08:33:10.379Z,100862.22
2019-04-27T08:35:38.880Z,100857.15
2019-04-27T08:38:09.114Z,100855.64
2019-04-27T08:40:39.347Z,100855.95
2019-04-27T08:43:09.222Z,100855.80
2019-04-27T08:45:39.221Z,100861.39
2019-04-27T08:48:09.337Z,100855.31
2019-04-27T08:50:39.718Z,100859.61
2019-04-27T08:53:09.715Z,100854.34
2019-04-27T08:55:39.531Z,100848.47
2019-04-27T08:58:07.827Z,100852.50
2019-04-27T09:00:36.335Z,100849.91
2019-04-27T09:03:04.812Z,100853.36
2019-04-27T09:05:33.312Z,100846.04
2019-04-27T09:08:18.917Z,100852.09
2019-04-27T09:11:04.999Z,100858.69
2019-04-27T09:13:39.362Z,100846.81
2019-04-27T09:16:15.479Z,100851.50
2019-04-27T09:18:43.836Z,100849.63
2019-04-27T09:21:12.324Z,100851.79
2019-04-27T09:23:40.523Z,100845.60
2019-04-27T09:26:09.572Z,100851.92
2019-04-27T09:28:38.918Z,100849.30
2019-04-27T09:31:08.723Z,100846.30
2019-04-27T09:33:37.007Z,100841.11
2019-04-27T09:36:06.138Z,100835.85
2019-04-27T09:38:35.786Z,100840.20
2019-04-27T09:41:04.087Z,100840.49
2019-04-27T09:43:32.284Z,100831.49
2019-04-27T09:46:00.721Z,100830.31
2019-04-27T09:48:29.196Z,100824.40
2019-04-27T09:50:57.686Z,100825.93
2019-04-27T09:53:27.064Z,100824.87
2019-04-27T09:55:55.718Z,100826.85
2019-04-27T09:58:25.593Z,100826.20
2019-04-27T10:00:53.919Z,100820.31
2019-04-27T10:03:22.174Z,100822.02
2019-04-27T10:05:50.390Z,100816.08
2019-04-27T10:08:18.586Z,100812.93
2019-04-27T10:10:48.010Z,100816.89
2019-04-27T10:13:16.276Z,100821.02
2019-04-27T10:15:45.966Z,100811.60
2019-04-27T10:18:16.199Z,100807.61
2019-04-27T10:20:58.284Z,100802.61
2019-04-27T10:23:14.035Z,100807.09
2019-04-27T10:25:42.234Z,100801.22
2019-04-27T10:28:10.444Z,100801.11
2019-04-27T10:30:38.640Z,100810.48
2019-04-27T10:33:08.205Z,100806.45
2019-04-27T10:35:36.497Z,100803.34
2019-04-27T10:38:04.634Z,100800.36
2019-04-27T10:40:32.844Z,100802.39
2019-04-27T10:43:01.039Z,100796.35
2019-04-27T10:45:29.245Z,100790.03
2019-04-27T10:47:57.439Z,100789.87
2019-04-27T10:50:26.513Z,100784.45
2019-04-27T10:52:58.908Z,100791.22
2019-04-27T10:55:26.170Z,100790.96
2019-04-27T10:57:54.425Z,100784.51
2019-04-27T11:00:39.291Z,100783.07
2019-04-27T11:03:07.708Z,100788.19
2019-04-27T11:05:46.778Z,100784.78
2019-04-27T11:08:16.729Z,100784.70
2019-04-27T11:10:46.168Z,100782.67
2019-04-27T11:13:16.361Z,100775.09
2019-04-27T11:15:46.146Z,100786.56
2019-04-27T11:18:14.450Z,100786.88
2019-04-27T11:20:42.665Z,100779.02
2019-04-27T11:23:12.430Z,100775.03
2019-04-27T11:25:40.957Z,100774.95
2019-04-27T11:28:09.399Z,100774.69
2019-04-27T11:30:37.610Z,100776.63
2019-04-27T11:33:06.338Z,100773.22
2019-04-27T11:35:36.217Z,100781.73
2019-04-27T11:38:05.585Z,100771.69
2019-04-27T11:40:33.864Z,100768.73
2019-04-27T11:43:02.356Z,100767.67
2019-04-27T11:45:30.840Z,100763.99
2019-04-27T11:47:59.299Z,100763.83
2019-04-27T11:50:27.540Z,100759.40
2019-04-27T11:52:56.642Z,100767.98
2019-04-27T11:55:25.047Z,100775.86
2019-04-27T11:57:53.244Z,100771.63
2019-04-27T12:00:24.068Z,100766.41
2019-04-27T12:02:52.265Z,100770.03
2019-04-27T12:05:20.841Z,100768.69
2019-04-27T12:07:49.219Z,100763.81
2019-04-27T12:10:17.684Z,100766.28
2019-04-27T12:12:46.455Z,100768.02
2019-04-27T12:15:16.101Z,100761.22
2019-04-27T12:17:46.047Z,100755.68
2019-04-27T12:20:15.974Z,100754.85
2019-04-27T12:22:44.702Z,100758.22
2019-04-27T12:25:13.193Z,100752.58
2019-04-27T12:28:01.447Z,100746.05
2019-04-27T12:30:33.927Z,100744.59
2019-04-27T12:33:02.131Z,100742.88
2019-04-27T12:35:30.345Z,100743.38
2019-04-27T12:37:58.638Z,100747.21
2019-04-27T12:40:27.143Z,100735.97
2019-04-27T12:42:55.607Z,100740.61
2019-04-27T12:45:24.109Z,100732.23
2019-04-27T12:47:52.325Z,100729.20
2019-04-27T12:50:21.096Z,100728.98
2019-04-27T12:52:53.588Z,100724.87
2019-04-27T12:55:39.668Z,100720.47
2019-04-27T12:58:26.519Z,100725.64
2019-04-27T13:00:56.402Z,100724.02
2019-04-27T13:03:26.072Z,100716.00
2019-04-27T13:05:54.445Z,100711.08
2019-04-27T13:08:22.905Z,100723.77
2019-04-27T13:10:51.394Z,100724.23
2019-04-27T13:13:19.863Z,100712.75
2019-04-27T13:15:48.369Z,100719.19
2019-04-27T13:18:16.903Z,100719.09
2019-04-27T13:20:45.316Z,100719.34
2019-04-27T13:23:13.773Z,100713.07
2019-04-27T13:25:42.635Z,100709.36
2019-04-27T13:28:10.845Z,100709.06
2019-04-27T13:30:39.237Z,100708.27
2019-04-27T13:33:07.444Z,100712.40
2019-04-27T13:35:35.684Z,100711.42
2019-04-27T13:38:03.886Z,100703.25
2019-04-27T13:40:35.577Z,100701.48
2019-04-27T13:43:05.512Z,100701.02
2019-04-27T13:45:38.006Z,100700.25
2019-04-27T13:48:10.841Z,100706.05
2019-04-27T13:50:46.850Z,100701.91
2019-04-27T13:53:16.737Z,100703.16
2019-04-27T13:55:46.707Z,100694.84
2019-04-27T13:58:15.054Z,100697.89
2019-04-27T14:00:43.552Z,100699.57
2019-04-27T14:03:11.752Z,100701.15
2019-04-27T14:05:39.965Z,100689.19
2019-04-27T14:08:09.177Z,100693.78
2019-04-27T14:10:38.657Z,100692.11
2019-04-27T14:13:08.828Z,100698.49
2019-04-27T14:15:38.869Z,100691.23
2019-04-27T14:18:08.415Z,100690.23
2019-04-27T14:20:38.810Z,100690.71
